Time;durP1;ratioP1;P1;durP2;ratioP2;P2;SDS_P1;SDS_P2;PMS_P1;PMS_P2;Temp;Humidity;BMP_temperature;BMP_pressure;BME280_temperature;BME280_humidity;BME280_pressure;Samples;Min_cycle;Max_cycle;Signal;HPM_P1;HPM_P2
2021/07/09 00:00:57;;;;;;;15.57;12.75;;;15.70;99.90;;;;;;5052053;28;20351;-61
2021/07/09 00:03:23;;;;;;;13.82;11.45;;;15.70;99.90;;;;;;5040684;28;20045;-60
2021/07/09 00:05:49;;;;;;;16.42;12.90;;;15.80;99.90;;;;;;5043854;28;20107;-61
2021/07/09 00:08:14;;;;;;;17.77;12.23;;;15.80;99.90;;;;;;5049392;28;20029;-63
2021/07/09 00:10:40;;;;;;;13.82;11.90;;;15.80;99.90;;;;;;5060065;28;20119;-61
2021/07/09 00:13:06;;;;;;;15.15;11.15;;;15.70;99.90;;;;;;5056492;28;20039;-62
2021/07/09 00:15:31;;;;;;;14.90;11.35;;;15.80;99.90;;;;;;5060276;28;20032;-58
2021/07/09 00:17:57;;;;;;;14.57;10.18;;;15.70;99.90;;;;;;5037533;28;20037;-61
2021/07/09 00:20:22;;;;;;;15.52;10.65;;;15.80;99.90;;;;;;5032463;28;20482;-61
2021/07/09 00:22:48;;;;;;;17.10;12.63;;;15.80;99.90;;;;;;5051288;28;20181;-61
2021/07/09 00:25:14;;;;;;;13.43;12.02;;;15.80;99.90;;;;;;5053304;28;20107;-62
2021/07/09 00:27:40;;;;;;;20.60;11.68;;;15.80;99.90;;;;;;5057437;28;20521;-61
2021/07/09 00:30:05;;;;;;;22.02;13.07;;;15.70;99.90;;;;;;5056891;28;20025;-61
2021/07/09 00:32:31;;;;;;;14.60;13.05;;;15.70;99.90;;;;;;5065914;28;20041;-61
2021/07/09 00:34:56;;;;;;;15.35;12.00;;;15.70;99.90;;;;;;5060513;28;20032;-62
2021/07/09 00:37:22;;;;;;;22.75;14.25;;;15.70;99.90;;;;;;5050944;28;20036;-62
2021/07/09 00:39:47;;;;;;;19.30;12.18;;;15.70;99.90;;;;;;5046990;28;20059;-60
2021/07/09 00:42:13;;;;;;;21.38;12.40;;;15.70;99.90;;;;;;5033657;28;20102;-60
2021/07/09 00:44:38;;;;;;;17.33;12.38;;;15.70;99.90;;;;;;5058427;28;20031;-61
2021/07/09 00:47:04;;;;;;;16.48;12.93;;;15.70;99.90;;;;;;5053911;28;20028;-62
2021/07/09 00:49:30;;;;;;;17.73;12.68;;;15.70;99.90;;;;;;5067342;28;20037;-60
2021/07/09 00:51:55;;;;;;;21.10;12.45;;;15.70;99.90;;;;;;5058733;28;20457;-60
2021/07/09 00:54:21;;;;;;;15.52;12.98;;;15.70;99.90;;;;;;5054970;28;20085;-60
2021/07/09 00:56:47;;;;;;;14.68;12.13;;;15.70;99.90;;;;;;5037118;28;20072;-60
2021/07/09 00:59:15;;;;;;;13.80;12.13;;;15.70;99.90;;;;;;5053045;28;20032;-61
2021/07/09 01:01:40;;;;;;;15.90;12.20;;;15.70;99.90;;;;;;5063326;28;20025;-60
2021/07/09 01:04:06;;;;;;;15.50;12.45;;;15.70;99.90;;;;;;5056517;28;20112;-62
2021/07/09 01:06:31;;;;;;;16.70;13.13;;;15.70;99.90;;;;;;5063952;28;20029;-62
2021/07/09 01:08:57;;;;;;;15.43;12.25;;;15.70;99.90;;;;;;5057307;28;20033;-60
2021/07/09 01:11:24;;;;;;;18.83;13.38;;;15.70;99.90;;;;;;5050119;28;20118;-62
2021/07/09 01:13:50;;;;;;;17.67;13.00;;;15.60;99.90;;;;;;5029148;28;20028;-61
2021/07/09 01:16:16;;;;;;;15.15;12.50;;;15.60;99.90;;;;;;5046392;28;20029;-62
2021/07/09 01:18:42;;;;;;;19.00;12.38;;;15.70;99.90;;;;;;5047342;28;20040;-60
2021/07/09 01:21:09;;;;;;;20.92;12.98;;;15.60;99.90;;;;;;5050108;28;20028;-60
2021/07/09 01:23:36;;;;;;;19.70;13.57;;;15.70;99.90;;;;;;5050372;28;20035;-61
2021/07/09 01:26:02;;;;;;;16.48;12.70;;;15.70;99.90;;;;;;5048739;28;20027;-60
2021/07/09 01:28:28;;;;;;;19.67;12.32;;;15.70;99.90;;;;;;5041824;28;20029;-62
2021/07/09 01:30:53;;;;;;;18.73;12.18;;;15.60;99.90;;;;;;5048158;28;20524;-62
2021/07/09 01:33:19;;;;;;;19.17;11.98;;;15.60;99.90;;;;;;5055459;28;20478;-60
2021/07/09 01:35:45;;;;;;;14.98;13.18;;;15.70;99.90;;;;;;5051158;28;20458;-61
2021/07/09 01:38:10;;;;;;;14.32;12.65;;;15.60;99.90;;;;;;5056837;28;20120;-62
2021/07/09 01:40:38;;;;;;;16.35;12.68;;;15.60;99.90;;;;;;5015007;28;20056;-61
2021/07/09 01:43:05;;;;;;;18.15;12.25;;;15.60;99.90;;;;;;5045771;28;20021;-61
2021/07/09 01:45:32;;;;;;;14.98;12.20;;;15.60;99.90;;;;;;5045403;28;20048;-61
2021/07/09 01:47:59;;;;;;;16.98;12.90;;;15.60;99.90;;;;;;5048024;28;20443;-62
2021/07/09 01:50:25;;;;;;;16.50;11.93;;;15.60;99.90;;;;;;5045409;28;20028;-60
2021/07/09 01:52:52;;;;;;;22.13;13.18;;;15.60;99.90;;;;;;5044883;28;20390;-59
2021/07/09 01:55:18;;;;;;;18.15;13.82;;;15.60;99.90;;;;;;5049491;28;20024;-58
2021/07/09 01:57:45;;;;;;;17.20;12.70;;;15.60;99.90;;;;;;5050583;28;20044;-60
2021/07/09 02:00:16;;;;;;;19.30;12.93;;;15.60;99.90;;;;;;5058290;28;20044;-60
2021/07/09 02:02:42;;;;;;;20.17;13.23;;;15.60;99.90;;;;;;5031019;28;20371;-61
2021/07/09 02:05:13;;;;;;;22.02;14.70;;;15.60;99.90;;;;;;5050509;28;20052;-60
2021/07/09 02:07:41;;;;;;;17.48;13.52;;;15.60;99.90;;;;;;5061146;28;20025;-62
2021/07/09 02:10:09;;;;;;;17.40;13.30;;;15.60;99.90;;;;;;5045618;28;20111;-62
2021/07/09 02:12:36;;;;;;;20.88;13.95;;;15.60;99.90;;;;;;5039918;28;20032;-61
2021/07/09 02:15:11;;;;;;;21.13;14.02;;;15.60;99.90;;;;;;5041074;28;20021;-60
2021/07/09 02:17:37;;;;;;;17.42;12.45;;;15.60;99.90;;;;;;5043998;28;20028;-61
2021/07/09 02:20:05;;;;;;;17.50;13.40;;;15.60;99.90;;;;;;5044826;28;20104;-62
2021/07/09 02:22:31;;;;;;;19.02;12.60;;;15.60;99.90;;;;;;5047645;28;20033;-62
2021/07/09 02:24:56;;;;;;;20.60;13.77;;;15.60;99.90;;;;;;5043805;28;20453;-60
2021/07/09 02:27:22;;;;;;;16.63;12.88;;;15.60;99.90;;;;;;5048054;28;20025;-60
2021/07/09 02:29:48;;;;;;;18.58;14.05;;;15.60;99.90;;;;;;5029168;28;20059;-62
2021/07/09 02:32:14;;;;;;;19.10;13.85;;;15.60;99.90;;;;;;5058830;28;20028;-61
2021/07/09 02:34:40;;;;;;;19.90;13.13;;;15.60;99.90;;;;;;5048928;28;20032;-61
2021/07/09 02:37:09;;;;;;;16.23;13.55;;;15.60;99.90;;;;;;5048471;28;20111;-61
2021/07/09 02:39:35;;;;;;;20.23;14.75;;;15.60;99.90;;;;;;5043322;28;20392;-62
2021/07/09 02:42:01;;;;;;;17.67;13.90;;;15.60;99.90;;;;;;5047283;28;20167;-62
2021/07/09 02:44:27;;;;;;;19.70;14.27;;;15.60;99.90;;;;;;5029051;28;20135;-62
2021/07/09 02:46:54;;;;;;;17.00;12.90;;;15.60;99.90;;;;;;5049569;28;20458;-58
2021/07/09 02:49:23;;;;;;;17.50;12.80;;;15.60;99.90;;;;;;5046278;28;20056;-62
2021/07/09 02:51:50;;;;;;;18.13;12.63;;;15.60;99.90;;;;;;5043784;28;20033;-60
2021/07/09 02:54:15;;;;;;;16.73;12.73;;;15.60;99.90;;;;;;5027547;28;20048;-60
2021/07/09 02:56:41;;;;;;;19.38;13.43;;;15.50;99.90;;;;;;5044310;28;20381;-61
2021/07/09 02:59:07;;;;;;;21.30;15.15;;;15.60;99.90;;;;;;5045553;28;20017;-60
2021/07/09 03:01:33;;;;;;;20.63;13.73;;;15.60;99.90;;;;;;5042868;28;20033;-60
2021/07/09 03:03:59;;;;;;;19.40;14.27;;;15.60;99.90;;;;;;5046980;28;20030;-60
2021/07/09 03:06:24;;;;;;;21.02;14.00;;;15.50;99.90;;;;;;5047282;28;20021;-61
2021/07/09 03:08:50;;;;;;;20.13;15.25;;;15.50;99.90;;;;;;5048664;28;20029;-60
2021/07/09 03:11:17;;;;;;;24.58;15.52;;;15.60;99.90;;;;;;5045826;28;20393;-60
2021/07/09 03:13:42;;;;;;;22.20;15.25;;;15.50;99.90;;;;;;5039226;28;20021;-61
2021/07/09 03:16:08;;;;;;;21.90;14.98;;;15.50;99.90;;;;;;5044791;28;20563;-62
2021/07/09 03:18:33;;;;;;;19.52;14.77;;;15.50;99.90;;;;;;5046806;28;20031;-61
2021/07/09 03:20:59;;;;;;;22.65;15.88;;;15.50;99.90;;;;;;5046728;28;20031;-60
2021/07/09 03:23:25;;;;;;;26.50;14.65;;;15.60;99.90;;;;;;5045749;28;20483;-61
2021/07/09 03:25:50;;;;;;;24.42;15.15;;;15.60;99.90;;;;;;5028752;28;20029;-62
2021/07/09 03:28:16;;;;;;;21.42;16.65;;;15.60;99.90;;;;;;5040579;28;20068;-61
2021/07/09 03:30:42;;;;;;;23.38;17.35;;;15.60;99.90;;;;;;5046391;28;20037;-61
2021/07/09 03:33:08;;;;;;;29.67;17.58;;;15.60;99.90;;;;;;5041400;28;20033;-60
2021/07/09 03:35:34;;;;;;;27.48;20.52;;;15.60;99.90;;;;;;5049329;28;20033;-60
2021/07/09 03:38:00;;;;;;;26.55;19.35;;;15.60;99.90;;;;;;5042954;28;20056;-58
2021/07/09 03:40:25;;;;;;;29.20;20.88;;;15.60;99.90;;;;;;5042521;28;20078;-62
2021/07/09 03:42:51;;;;;;;33.80;22.35;;;15.60;99.90;;;;;;5043892;28;20393;-62
2021/07/09 03:45:16;;;;;;;33.72;21.60;;;15.60;99.90;;;;;;5045612;28;20043;-61
2021/07/09 03:47:42;;;;;;;28.00;21.40;;;15.60;99.90;;;;;;5051054;28;20037;-61
2021/07/09 03:50:08;;;;;;;37.35;20.95;;;15.60;99.90;;;;;;5050460;28;20096;-60
2021/07/09 03:52:34;;;;;;;36.65;21.75;;;15.60;99.90;;;;;;5050525;28;20108;-61
2021/07/09 03:54:59;;;;;;;31.38;20.23;;;15.60;99.90;;;;;;5049903;28;20100;-62
2021/07/09 03:57:25;;;;;;;21.77;17.05;;;15.70;99.90;;;;;;5043613;28;20112;-60
2021/07/09 03:59:51;;;;;;;34.38;20.38;;;15.70;99.90;;;;;;5052314;28;20036;-61
2021/07/09 04:02:16;;;;;;;36.65;23.10;;;15.70;99.90;;;;;;5048430;28;20029;-61
2021/07/09 04:04:42;;;;;;;37.00;22.63;;;15.70;99.90;;;;;;5050744;28;20029;-60
2021/07/09 04:07:07;;;;;;;36.10;24.55;;;15.70;99.90;;;;;;5050863;28;20094;-59
2021/07/09 04:09:33;;;;;;;32.63;22.42;;;15.70;99.90;;;;;;5050832;28;20028;-61
2021/07/09 04:11:58;;;;;;;38.15;23.63;;;15.70;99.90;;;;;;5048698;28;20039;-60
2021/07/09 04:14:25;;;;;;;53.28;18.85;;;15.70;99.90;;;;;;5047780;28;20025;-61
2021/07/09 04:16:51;;;;;;;57.85;16.77;;;15.70;99.90;;;;;;5046377;28;20088;-60
2021/07/09 04:19:16;;;;;;;283.30;18.92;;;15.70;99.90;;;;;;5048253;28;20021;-60
2021/07/09 04:21:42;;;;;;;435.85;28.58;;;15.60;99.90;;;;;;5043614;28;20036;-60
2021/07/09 04:24:08;;;;;;;273.45;16.40;;;15.60;99.90;;;;;;5049679;28;20086;-61
2021/07/09 04:26:34;;;;;;;282.83;17.33;;;15.60;99.90;;;;;;5050538;28;20029;-62
2021/07/09 04:29:00;;;;;;;316.83;19.58;;;15.60;99.90;;;;;;5049405;28;20032;-61
2021/07/09 04:31:26;;;;;;;108.45;15.77;;;15.60;99.90;;;;;;5051716;28;20661;-61
2021/07/09 04:33:53;;;;;;;70.20;17.80;;;15.70;99.90;;;;;;5043680;28;20024;-59
2021/07/09 04:36:19;;;;;;;42.90;18.23;;;15.70;99.90;;;;;;5049924;28;20021;-62
2021/07/09 04:38:44;;;;;;;30.83;19.13;;;15.80;99.90;;;;;;5050493;28;20044;-61
2021/07/09 04:41:10;;;;;;;39.22;20.20;;;15.80;99.90;;;;;;5052016;28;20048;-61
2021/07/09 04:43:38;;;;;;;118.28;18.02;;;15.90;99.90;;;;;;5048743;28;20028;-62
2021/07/09 04:46:05;;;;;;;38.13;21.13;;;16.00;99.90;;;;;;5045743;28;20013;-61
2021/07/09 04:48:31;;;;;;;36.97;17.45;;;16.00;99.90;;;;;;5047980;28;20025;-63
2021/07/09 04:50:57;;;;;;;73.05;12.82;;;16.10;99.90;;;;;;5049675;28;20025;-61
2021/07/09 04:53:22;;;;;;;15.55;11.13;;;16.10;99.90;;;;;;5049764;28;20498;-62
2021/07/09 04:55:48;;;;;;;44.55;22.83;;;16.20;99.90;;;;;;5051359;28;20033;-62
2021/07/09 04:58:13;;;;;;;28.00;16.40;;;16.20;99.90;;;;;;5047265;28;20036;-61
2021/07/09 05:00:39;;;;;;;29.65;19.17;;;16.30;99.90;;;;;;5029216;28;20032;-60
2021/07/09 05:03:04;;;;;;;45.72;27.10;;;16.30;99.90;;;;;;5050608;28;20021;-62
2021/07/09 05:05:30;;;;;;;53.78;29.80;;;16.40;99.90;;;;;;5048486;28;20040;-61
2021/07/09 05:07:56;;;;;;;46.83;24.73;;;16.50;99.90;;;;;;5031968;28;20060;-61
2021/07/09 05:10:21;;;;;;;52.35;29.75;;;16.50;99.90;;;;;;5049741;28;20061;-62
2021/07/09 05:12:47;;;;;;;62.85;31.40;;;16.50;99.90;;;;;;5047244;28;20151;-61
2021/07/09 05:15:13;;;;;;;61.03;32.95;;;16.50;99.90;;;;;;5050111;28;20033;-61
2021/07/09 05:17:39;;;;;;;55.63;32.47;;;16.60;99.90;;;;;;5048672;28;20524;-63
2021/07/09 05:20:05;;;;;;;53.95;30.38;;;16.70;99.90;;;;;;5048676;28;20028;-61
2021/07/09 05:22:30;;;;;;;50.85;29.92;;;16.70;99.90;;;;;;5049156;28;20039;-62
2021/07/09 05:24:56;;;;;;;53.40;31.67;;;16.80;99.90;;;;;;5050411;28;20025;-61
2021/07/09 05:27:29;;;;;;;56.58;31.60;;;16.80;99.90;;;;;;5048979;28;20040;-61
2021/07/09 05:29:55;;;;;;;55.92;33.30;;;16.90;99.90;;;;;;5045835;28;20028;-62
2021/07/09 05:32:23;;;;;;;52.72;30.88;;;16.90;99.90;;;;;;5049399;28;20036;-61
2021/07/09 05:34:50;;;;;;;56.80;32.85;;;16.90;99.90;;;;;;5049173;28;20379;-60
2021/07/09 05:37:17;;;;;;;54.25;32.33;;;16.90;99.90;;;;;;5052601;28;20033;-61
2021/07/09 05:39:43;;;;;;;53.13;31.73;;;17.00;99.90;;;;;;5046197;28;20028;-62
2021/07/09 05:42:08;;;;;;;62.88;33.50;;;17.00;99.90;;;;;;5050668;28;20032;-62
2021/07/09 05:44:34;;;;;;;56.83;30.05;;;17.00;99.90;;;;;;5051893;28;20029;-61
2021/07/09 05:47:00;;;;;;;50.22;29.90;;;17.10;99.90;;;;;;5048577;28;20040;-61
2021/07/09 05:49:25;;;;;;;51.78;28.88;;;17.20;99.90;;;;;;5055399;28;20148;-62
2021/07/09 05:51:51;;;;;;;57.00;31.70;;;17.20;99.90;;;;;;5048888;28;20041;-62
2021/07/09 05:54:16;;;;;;;51.88;31.63;;;17.20;99.90;;;;;;5046070;28;20020;-62
2021/07/09 05:56:42;;;;;;;42.05;26.48;;;17.30;99.90;;;;;;5048563;28;20063;-62
2021/07/09 05:59:08;;;;;;;54.92;32.55;;;17.30;99.90;;;;;;5047824;28;20553;-62
2021/07/09 06:01:33;;;;;;;62.58;33.38;;;17.30;99.90;;;;;;5048763;28;20059;-61
2021/07/09 06:03:59;;;;;;;69.75;35.30;;;17.20;99.90;;;;;;5050038;28;20040;-62
2021/07/09 06:06:24;;;;;;;59.47;35.50;;;17.30;99.90;;;;;;5047645;28;20068;-62
2021/07/09 06:08:50;;;;;;;60.58;35.35;;;17.30;99.90;;;;;;5040998;28;20032;-61
2021/07/09 06:11:16;;;;;;;58.95;34.42;;;17.30;99.90;;;;;;5046402;28;20028;-57
2021/07/09 06:13:41;;;;;;;69.93;36.03;;;17.30;99.90;;;;;;5030952;28;20478;-62
2021/07/09 06:16:07;;;;;;;61.78;34.88;;;17.30;99.90;;;;;;5037162;28;20040;-62
2021/07/09 06:18:33;;;;;;;59.10;35.35;;;17.40;99.90;;;;;;5044659;28;20044;-60
2021/07/09 06:20:59;;;;;;;61.28;36.00;;;17.50;99.90;;;;;;5045239;28;20025;-61
2021/07/09 06:23:24;;;;;;;67.40;35.95;;;17.50;99.90;;;;;;5031909;28;20052;-61
2021/07/09 06:25:51;;;;;;;59.45;37.92;;;17.50;99.90;;;;;;5051489;28;20385;-62
2021/07/09 06:28:16;;;;;;;67.93;39.03;;;17.50;99.90;;;;;;5049735;28;20013;-61
2021/07/09 06:30:42;;;;;;;66.72;38.88;;;17.40;99.90;;;;;;5047151;28;20571;-60
2021/07/09 06:33:09;;;;;;;63.78;37.45;;;17.50;99.90;;;;;;5047987;28;20029;-63
2021/07/09 06:35:36;;;;;;;65.28;39.80;;;17.50;99.90;;;;;;5048310;28;20033;-60
2021/07/09 06:38:01;;;;;;;66.63;40.88;;;17.50;99.90;;;;;;5024481;28;20088;-61
2021/07/09 06:40:27;;;;;;;63.13;39.03;;;17.60;99.90;;;;;;5051205;28;20033;-62
2021/07/09 06:42:53;;;;;;;70.28;42.55;;;17.60;99.90;;;;;;5047678;28;20048;-62
2021/07/09 06:45:20;;;;;;;66.82;42.45;;;17.60;99.90;;;;;;5046903;28;20492;-60
2021/07/09 06:47:46;;;;;;;69.10;43.53;;;17.60;99.90;;;;;;5050204;28;20112;-62
2021/07/09 06:50:13;;;;;;;71.35;42.88;;;17.60;99.90;;;;;;5046457;28;20021;-62
2021/07/09 06:52:40;;;;;;;70.65;43.15;;;17.70;99.90;;;;;;5045349;28;20037;-62
2021/07/09 06:55:06;;;;;;;65.43;44.72;;;17.70;99.90;;;;;;5051410;28;20028;-62
2021/07/09 06:57:32;;;;;;;69.82;41.70;;;17.80;99.90;;;;;;5049616;28;20029;-62
2021/07/09 06:59:58;;;;;;;65.28;39.75;;;17.80;99.90;;;;;;5019313;28;20042;-62
2021/07/09 07:02:23;;;;;;;63.40;40.40;;;17.80;99.90;;;;;;5045176;28;20066;-62
2021/07/09 07:04:50;;;;;;;67.43;40.92;;;17.70;99.90;;;;;;5046976;28;20045;-62
2021/07/09 07:07:16;;;;;;;62.75;40.22;;;17.70;99.90;;;;;;5042905;28;20056;-60
2021/07/09 07:09:42;;;;;;;69.05;42.17;;;17.60;99.90;;;;;;5033554;28;20236;-62
2021/07/09 07:12:08;;;;;;;68.70;45.15;;;17.60;99.90;;;;;;5046785;28;20073;-62
2021/07/09 07:14:35;;;;;;;68.57;43.47;;;17.60;99.90;;;;;;5046604;28;20072;-62
2021/07/09 07:17:02;;;;;;;63.67;41.22;;;17.70;99.90;;;;;;5046260;28;20447;-62
2021/07/09 07:19:27;;;;;;;55.80;37.78;;;17.80;99.90;;;;;;5043807;28;20094;-62
2021/07/09 07:21:53;;;;;;;57.97;36.47;;;17.80;99.90;;;;;;5051410;28;20108;-62
2021/07/09 07:24:19;;;;;;;50.75;34.83;;;18.00;99.90;;;;;;5050060;28;20439;-61
2021/07/09 07:26:45;;;;;;;48.53;34.67;;;17.90;99.90;;;;;;5054733;28;20032;-62
2021/07/09 07:29:10;;;;;;;57.92;35.60;;;17.90;99.90;;;;;;5051219;28;20025;-61
2021/07/09 07:31:36;;;;;;;54.38;36.90;;;17.80;99.90;;;;;;5052086;28;20422;-63
2021/07/09 07:34:02;;;;;;;55.88;37.42;;;17.80;99.90;;;;;;5045429;28;20044;-62
2021/07/09 07:36:27;;;;;;;57.65;37.20;;;17.80;99.90;;;;;;5055985;28;20501;-63
2021/07/09 07:38:53;;;;;;;52.60;36.90;;;17.70;99.90;;;;;;5052518;28;20032;-62
2021/07/09 07:41:19;;;;;;;49.50;32.80;;;17.70;99.90;;;;;;5051057;28;20040;-60
2021/07/09 07:43:46;;;;;;;55.13;38.38;;;17.80;99.90;;;;;;5047967;28;20033;-62
2021/07/09 07:46:13;;;;;;;69.15;42.05;;;17.90;99.90;;;;;;5046773;28;20266;-62
2021/07/09 07:48:39;;;;;;;67.70;42.22;;;18.10;99.90;;;;;;5051115;28;20048;-62
2021/07/09 07:51:05;;;;;;;70.85;40.53;;;18.40;99.90;;;;;;5050354;28;20482;-62
2021/07/09 07:53:34;;;;;;;63.67;40.83;;;18.60;99.90;;;;;;5050260;28;20044;-63
2021/07/09 07:56:01;;;;;;;60.83;40.42;;;18.70;99.90;;;;;;5047998;28;20079;-62
2021/07/09 07:58:27;;;;;;;64.43;41.55;;;18.90;99.90;;;;;;5063684;28;20035;-63
2021/07/09 08:00:53;;;;;;;64.97;39.92;;;19.50;99.90;;;;;;5020031;28;20032;-63
2021/07/09 08:03:18;;;;;;;54.72;37.15;;;20.10;99.90;;;;;;5045522;28;20441;-60
2021/07/09 08:05:44;;;;;;;58.40;36.83;;;20.80;99.90;;;;;;5053556;28;20147;-62
2021/07/09 08:08:09;;;;;;;54.03;36.83;;;21.90;99.90;;;;;;5049607;28;20418;-62
2021/07/09 08:10:35;;;;;;;57.17;38.45;;;22.30;99.90;;;;;;5049506;28;20025;-63
2021/07/09 08:13:01;;;;;;;54.33;39.35;;;22.70;99.90;;;;;;5034161;28;20603;-62
2021/07/09 08:15:26;;;;;;;51.53;36.00;;;22.30;99.90;;;;;;5045977;28;20444;-63
2021/07/09 08:17:52;;;;;;;55.83;38.22;;;22.30;99.90;;;;;;5048882;28;20033;-62
2021/07/09 08:20:18;;;;;;;53.45;38.22;;;21.40;99.90;;;;;;5049584;28;20033;-63
2021/07/09 08:22:43;;;;;;;50.45;36.42;;;21.40;99.90;;;;;;5051132;28;20032;-62
2021/07/09 08:25:10;;;;;;;52.40;35.95;;;22.10;99.90;;;;;;5049603;28;20047;-61
2021/07/09 08:27:40;;;;;;;46.38;33.92;;;22.20;99.90;;;;;;5050855;28;20079;-61
2021/07/09 08:30:06;;;;;;;47.97;34.63;;;22.50;99.90;;;;;;5029688;28;20017;-62
2021/07/09 08:32:33;;;;;;;46.17;33.15;;;22.20;99.90;;;;;;5041793;28;20043;-63
2021/07/09 08:34:59;;;;;;;50.35;34.47;;;22.40;99.90;;;;;;5049487;28;20044;-62
2021/07/09 08:37:25;;;;;;;41.03;31.70;;;22.70;99.90;;;;;;5049162;28;20486;-62
2021/07/09 08:39:50;;;;;;;44.95;33.50;;;22.40;99.90;;;;;;5048440;28;20044;-62
2021/07/09 08:42:16;;;;;;;41.88;30.95;;;22.90;99.90;;;;;;5048682;28;20033;-60
2021/07/09 08:44:42;;;;;;;47.92;35.00;;;23.50;99.90;;;;;;5053520;28;20162;-61
2021/07/09 08:47:07;;;;;;;49.58;34.95;;;23.40;99.90;;;;;;5047617;28;20021;-63
2021/07/09 08:49:34;;;;;;;44.88;33.28;;;23.60;99.90;;;;;;5047668;28;20399;-62
2021/07/09 08:51:59;;;;;;;46.60;34.95;;;23.20;99.90;;;;;;5050156;28;20098;-63
2021/07/09 08:54:25;;;;;;;47.97;34.33;;;23.10;99.90;;;;;;5047604;28;20490;-61
2021/07/09 08:56:51;;;;;;;49.38;34.13;;;22.90;99.90;;;;;;5049539;28;20028;-63
2021/07/09 08:59:18;;;;;;;46.35;33.58;;;22.40;99.90;;;;;;5047648;28;20118;-60
2021/07/09 09:01:51;;;;;;;42.95;32.40;;;22.40;99.90;;;;;;5031003;28;20045;-61
2021/07/09 09:04:24;;;;;;;46.85;33.65;;;22.00;99.90;;;;;;5050360;28;20028;-63
2021/07/09 09:07:03;;;;;;;;;;;21.80;99.90;;;;;;5048346;28;20033;-63
2021/07/09 09:09:30;;;;;;;45.78;32.72;;;21.80;99.90;;;;;;5046764;28;20648;-60
2021/07/09 09:12:08;;;;;;;45.55;32.28;;;22.20;99.90;;;;;;5050266;28;20059;-62
2021/07/09 09:14:37;;;;;;;57.97;39.60;;;22.40;99.90;;;;;;5046693;28;20029;-63
2021/07/09 09:17:23;;;;;;;53.35;38.80;;;22.50;99.90;;;;;;5049434;28;20489;-63
2021/07/09 09:20:13;;;;;;;57.20;40.45;;;22.50;99.90;;;;;;5038917;28;20043;-62
2021/07/09 09:22:48;;;;;;;58.53;39.85;;;22.50;99.90;;;;;;5044110;28;20116;-62
2021/07/09 09:25:18;;;;;;;55.17;37.78;;;22.50;99.90;;;;;;5044071;28;20382;-62
2021/07/09 09:27:44;;;;;;;49.30;37.13;;;22.40;99.90;;;;;;5043878;28;20033;-62
2021/07/09 09:30:09;;;;;;;51.60;35.92;;;22.20;99.90;;;;;;5036474;28;20025;-62
2021/07/09 09:32:48;;;;;;;51.38;36.42;;;22.60;99.90;;;;;;5049973;28;20021;-62
2021/07/09 09:35:27;;;;;;;50.13;35.95;;;22.90;99.90;;;;;;5046401;28;20035;-63
2021/07/09 09:37:58;;;;;;;48.00;35.10;;;22.80;99.90;;;;;;5050621;28;20095;-63
2021/07/09 09:40:26;;;;;;;51.17;35.13;;;23.20;99.90;;;;;;5050241;28;20040;-61
2021/07/09 09:42:52;;;;;;;52.92;35.83;;;23.10;99.90;;;;;;5048457;28;20056;-59
2021/07/09 09:45:25;;;;;;;54.35;35.13;;;22.60;99.90;;;;;;5047560;28;20033;-62
2021/07/09 09:47:51;;;;;;;48.25;34.35;;;22.50;99.90;;;;;;5003962;28;20068;-61
2021/07/09 09:50:19;;;;;;;41.88;31.35;;;22.60;99.90;;;;;;5040553;28;20037;-62
2021/07/09 09:52:45;;;;;;;44.53;32.65;;;22.60;99.90;;;;;;5048444;28;20036;-62
2021/07/09 09:55:30;;;;;;;43.90;30.00;;;22.90;99.90;;;;;;5045192;28;20116;-62
2021/07/09 09:58:13;;;;;;;48.38;32.70;;;23.20;99.90;;;;;;5051804;28;20017;-61
2021/07/09 10:00:40;;;;;;;39.97;27.50;;;23.30;99.90;;;;;;5049423;28;20074;-61
2021/07/09 10:03:07;;;;;;;38.55;25.98;;;23.70;99.90;;;;;;5034724;28;20048;-63
2021/07/09 10:05:39;;;;;;;42.03;27.77;;;24.10;99.90;;;;;;5044508;28;20035;-63
2021/07/09 10:08:09;;;;;;;40.03;28.17;;;24.10;99.90;;;;;;5030402;28;20184;-62
2021/07/09 10:10:35;;;;;;;34.33;26.33;;;23.90;99.90;;;;;;5036470;28;20639;-62
2021/07/09 10:13:02;;;;;;;34.05;25.27;;;23.90;99.90;;;;;;5038612;28;20029;-63
2021/07/09 10:15:30;;;;;;;37.17;25.60;;;23.90;99.90;;;;;;5046845;28;20399;-63
2021/07/09 10:17:57;;;;;;;30.42;23.10;;;24.40;99.90;;;;;;5047125;28;20414;-62
2021/07/09 10:20:23;;;;;;;33.70;23.52;;;24.70;99.80;;;;;;5049072;28;20021;-62
2021/07/09 10:22:49;;;;;;;32.13;22.77;;;24.40;99.70;;;;;;5026346;28;20116;-62
2021/07/09 10:25:17;;;;;;;32.58;22.92;;;24.00;99.90;;;;;;5048021;28;20044;-59
2021/07/09 10:27:43;;;;;;;41.17;28.05;;;23.60;99.90;;;;;;5044107;28;20025;-61
2021/07/09 10:30:10;;;;;;;36.72;26.73;;;23.20;99.90;;;;;;5042578;28;20037;-59
2021/07/09 10:32:41;;;;;;;38.00;26.67;;;23.00;99.90;;;;;;5045860;28;20751;-62
2021/07/09 10:35:30;;;;;;;35.83;24.75;;;22.90;99.90;;;;;;5044404;28;20028;-61
2021/07/09 10:38:21;;;;;;;35.40;24.55;;;22.80;99.90;;;;;;5046512;28;20029;-61
2021/07/09 10:40:47;;;;;;;34.13;28.00;;;22.60;99.90;;;;;;5047158;28;20078;-62
2021/07/09 10:43:15;;;;;;;38.72;30.80;;;22.00;99.90;;;;;;5048392;28;20032;-61
2021/07/09 10:45:42;;;;;;;41.40;31.08;;;21.40;99.90;;;;;;5045183;28;20025;-61
2021/07/09 10:48:12;;;;;;;39.33;33.25;;;21.00;99.90;;;;;;5043949;28;20060;-61
2021/07/09 10:50:37;;;;;;;45.92;33.97;;;20.60;99.90;;;;;;5047679;28;20025;-62
2021/07/09 10:53:09;;;;;;;47.53;34.78;;;20.20;99.90;;;;;;5038731;28;20029;-60
2021/07/09 10:55:40;;;;;;;45.28;34.63;;;19.90;99.90;;;;;;5042799;28;20036;-61
2021/07/09 10:58:06;;;;;;;45.22;34.33;;;19.60;99.90;;;;;;5047165;28;20116;-61
2021/07/09 11:00:41;;;;;;;57.85;38.20;;;19.50;99.90;;;;;;5042656;28;20021;-61
2021/07/09 11:03:09;;;;;;;46.63;34.08;;;19.40;99.90;;;;;;5048722;28;20112;-60
2021/07/09 11:06:02;;;;;;;41.05;33.63;;;19.40;99.90;;;;;;5048895;28;20512;-60
2021/07/09 11:08:30;;;;;;;40.03;31.13;;;19.40;99.90;;;;;;5030645;28;20040;-62
2021/07/09 11:11:06;;;;;;;35.78;29.75;;;19.50;99.90;;;;;;5031607;28;20608;-62
2021/07/09 11:13:44;;;;;;;43.13;30.30;;;19.70;99.90;;;;;;5033931;28;20037;-61
2021/07/09 11:16:35;;;;;;;38.00;26.05;;;19.70;99.90;;;;;;5046169;28;20490;-61
2021/07/09 11:19:03;;;;;;;34.75;25.63;;;19.70;99.90;;;;;;5057515;28;20028;-62
2021/07/09 11:21:32;;;;;;;40.53;26.77;;;19.70;99.90;;;;;;5049762;28;20640;-63
2021/07/09 11:24:08;;;;;;;37.38;25.52;;;19.80;99.90;;;;;;5057372;28;20108;-61
2021/07/09 11:26:35;;;;;;;33.63;22.50;;;19.90;99.90;;;;;;5047623;28;20036;-62
2021/07/09 11:29:21;;;;;;;31.58;22.65;;;20.10;99.90;;;;;;5047699;28;20922;-61
2021/07/09 11:31:47;;;;;;;29.52;21.77;;;20.20;99.90;;;;;;5047886;28;20024;-62
2021/07/09 11:34:14;;;;;;;26.77;19.27;;;20.30;99.90;;;;;;5042389;28;20021;-60
2021/07/09 11:36:48;;;;;;;27.33;20.05;;;20.40;99.90;;;;;;5047522;28;20025;-61
2021/07/09 11:39:29;;;;;;;25.67;19.42;;;20.30;99.90;;;;;;5051557;28;20014;-63
2021/07/09 11:42:07;;;;;;;26.23;18.92;;;20.30;99.90;;;;;;5042016;28;20037;-60
2021/07/09 11:44:44;;;;;;;26.02;18.27;;;20.40;99.90;;;;;;5051654;28;20024;-62
2021/07/09 11:47:22;;;;;;;25.08;17.88;;;20.30;99.90;;;;;;5050589;28;20087;-61
2021/07/09 11:50:01;;;;;;;25.83;18.10;;;20.40;99.90;;;;;;5060331;28;20033;-61
2021/07/09 11:52:28;;;;;;;27.58;18.70;;;20.40;99.90;;;;;;5043719;28;20060;-61
2021/07/09 11:54:55;;;;;;;21.77;16.95;;;20.50;99.90;;;;;;5061475;28;20457;-62
2021/07/09 11:57:23;;;;;;;29.15;18.63;;;20.60;99.90;;;;;;5055999;28;20029;-59
2021/07/09 11:59:51;;;;;;;23.70;17.25;;;20.80;99.90;;;;;;5061686;28;20070;-61
2021/07/09 12:02:21;;;;;;;22.02;16.60;;;20.90;99.90;;;;;;5055111;28;20032;-61
2021/07/09 12:04:48;;;;;;;26.40;16.25;;;21.00;99.90;;;;;;5061003;28;20453;-61
2021/07/09 12:07:18;;;;;;;26.58;16.58;;;21.20;99.90;;;;;;5057709;28;20017;-61
2021/07/09 12:09:47;;;;;;;24.77;14.38;;;21.30;99.90;;;;;;5057345;28;20017;-61
2021/07/09 12:12:14;;;;;;;18.90;14.65;;;21.40;99.90;;;;;;5035288;28;20021;-60
2021/07/09 12:15:11;;;;;;;19.00;12.88;;;21.60;99.90;;;;;;5051376;28;20029;-62
2021/07/09 12:17:58;;;;;;;16.20;12.55;;;21.90;99.90;;;;;;5049749;28;20029;-62
2021/07/09 12:20:29;;;;;;;20.13;13.23;;;22.20;99.90;;;;;;5050501;28;20115;-62
2021/07/09 12:22:59;;;;;;;19.73;12.18;;;22.30;99.90;;;;;;5044924;28;20094;-60
2021/07/09 12:25:29;;;;;;;16.35;13.18;;;22.30;99.90;;;;;;5051827;28;20028;-62
2021/07/09 12:28:07;;;;;;;16.15;11.57;;;22.30;99.90;;;;;;5055421;28;20032;-61
2021/07/09 12:30:34;;;;;;;13.55;10.93;;;22.20;99.90;;;;;;5053065;28;20028;-61